Maersk Constellation — WRYJ — position and weather

sailwx.info

Track history (hours):
 
Tides and Currents Weather Stations Pressure Air Temp Water Temp Dewpoint Dewpoint Depression Visibility Wind Speed Wind Dir Waves Ship Positions

Maersk Constellation

Owner: MAERSK LINES LIMITED, Norfolk, VA. More information available from US FCC via Universal Licensing System and Coast Guard Vessel Documentation Center.

Last reported at 2017-May-03 19:05 UTC. Time now 2017-Jun-25 12:14 UTC.
Position N 16°01' W 061°47'.
Warning: this ship's position is 52 days out of date.

Type: Cargo ship. MMSI: 367477000.

Date/timePositionNaut miles runAvg speedWind from/ knotsBaromVisibWave heightAir tempDewpointWater temp
2017-May-03 19:05N 16°01' W 061°47'17 7.9
2017-May-03 16:55N 16°17' W 061°54'4 8.6
2017-May-03 16:29N 16°20' W 061°55'4 8.9
2017-May-03 15:59N 16°24' W 061°56'4 8.4
2017-May-03 15:30N 16°28' W 061°58'4 8.0
2017-May-03 15:00N 16°32' W 061°59'9 8.4
2017-May-03 13:58N 16°40' W 062°02'3 7.2
2017-May-03 13:30N 16°43' W 062°03'2 3.5
2017-May-03 13:00N 16°45' W 062°04'4 8.4
2017-May-03 12:30N 16°49' W 062°06'4 7.4
2017-May-03 12:00N 16°52' W 062°07'4 6.2
2017-May-03 11:23N 16°55' W 062°10'2 6.5
2017-May-03 11:00N 16°57' W 062°12'76 7.5
2017-May-03 00:47N 17°56' W 063°02'3 8.8
2017-May-03 00:28N 17°58' W 063°05'4 8.2
2017-May-02 23:57N 18°01' W 063°08'4 7.0
2017-May-02 23:25N 18°04' W 063°09'3 6.4
2017-May-02 22:56N 18°05' W 063°06'1 1.0
2017-May-02 22:19N 18°04' W 063°05'0 0.0
2017-May-02 21:49N 18°04' W 063°05'0 0.0
2017-May-02 21:25N 18°04' W 063°05'0 0.0
2017-May-02 20:55N 18°04' W 063°05'0 0.0
2017-May-02 20:25N 18°04' W 063°05'0 0.0
2017-May-02 19:52N 18°04' W 063°05'0 0.0
2017-May-02 19:26N 18°04' W 063°05'0 0.0
2017-May-02 18:55N 18°04' W 063°05'0 0.0
2017-May-02 18:28N 18°04' W 063°05'0 0.0
2017-May-02 17:58N 18°04' W 063°05'0 0.0
2017-May-02 17:28N 18°04' W 063°05'0 0.0
2017-May-02 16:58N 18°04' W 063°05'0 0.0
2017-May-02 16:28N 18°04' W 063°05'0 0.0
2017-May-02 15:58N 18°04' W 063°05'0 0.0
2017-May-02 15:29N 18°04' W 063°05'0 0.0
2017-May-02 14:58N 18°04' W 063°05'0 0.0
2017-May-02 14:29N 18°04' W 063°05'0 0.0
2017-May-02 13:57N 18°04' W 063°05'0 0.0
2017-May-02 13:30N 18°04' W 063°05'0 0.0
2017-May-02 13:00N 18°04' W 063°05'0 0.0
2017-May-02 12:12N 18°04' W 063°05'0 0.0
2017-May-02 12:00N 18°04' W 063°05'0 0.0
2017-May-02 11:30N 18°04' W 063°05'0 0.0
2017-May-02 10:57N 18°04' W 063°05'0 0.0
2017-May-02 10:30N 18°04' W 063°05'0 0.0
2017-May-02 09:18N 18°04' W 063°05'0 0.0
2017-May-02 09:00N 18°04' W 063°05'0 0.0
2017-May-02 08:21N 18°04' W 063°05'0 0.0
2017-May-02 07:51N 18°04' W 063°05'0 0.0
2017-May-02 07:30N 18°04' W 063°05'0 0.0
2017-May-02 06:51N 18°04' W 063°05'0 0.0
2017-May-02 06:03N 18°04' W 063°05'0 0.0
2017-May-02 05:54N 18°04' W 063°05'0 0.0
2017-May-02 05:18N 18°04' W 063°05'0 0.0
2017-May-02 04:51N 18°04' W 063°05'0 0.0
2017-May-02 04:24N 18°04' W 063°05'0 0.0
2017-May-02 03:51N 18°04' W 063°05'0 0.0
2017-May-02 03:24N 18°04' W 063°05'0 0.0
2017-May-02 02:57N 18°04' W 063°05'0 0.0
2017-May-02 02:29N 18°04' W 063°05'0 0.0
2017-May-02 01:59N 18°04' W 063°05'0 0.0
2017-May-02 01:29N 18°04' W 063°05'0 0.0
2017-May-02 00:59N 18°04' W 063°05'0 0.0
2017-May-02 00:26N 18°04' W 063°05'0 0.0
2017-May-01 23:50N 18°04' W 063°05'0 0.0
2017-May-01 23:26N 18°04' W 063°05'0 0.0
2017-May-01 22:56N 18°04' W 063°05'0 0.0
2017-May-01 22:26N 18°04' W 063°05'0 0.0
2017-May-01 21:59N 18°04' W 063°05'0 0.0
2017-May-01 21:29N 18°04' W 063°05'0 0.0
2017-May-01 20:26N 18°04' W 063°05'0 0.0
2017-May-01 19:29N 18°04' W 063°05'0 0.0
2017-May-01 18:59N 18°04' W 063°05'0 0.0
2017-May-01 18:17N 18°04' W 063°05'0 0.0
2017-May-01 17:59N 18°04' W 063°05'0 0.0
2017-May-01 17:29N 18°04' W 063°05'0 0.0
2017-May-01 16:59N 18°04' W 063°05'0 0.0
2017-May-01 16:29N 18°04' W 063°05'0 0.0
2017-May-01 15:59N 18°04' W 063°05'0 0.0
2017-May-01 15:20N 18°04' W 063°05'0 0.0
2017-May-01 14:50N 18°04' W 063°05'0 0.0
2017-May-01 14:00N 18°04' W 063°05'0 0.0
2017-May-01 13:22N 18°04' W 063°05'0 0.0
2017-May-01 12:52N 18°04' W 063°05'0 0.0
2017-May-01 12:22N 18°04' W 063°05'0 0.0
2017-May-01 11:49N 18°04' W 063°05'0 0.0
2017-May-01 11:22N 18°04' W 063°05'0 0.0
2017-May-01 10:55N 18°04' W 063°05'0 0.0
2017-May-01 10:25N 18°04' W 063°05'0 0.0
2017-May-01 09:55N 18°04' W 063°05'0 0.0
2017-May-01 08:40N 18°04' W 063°05'0 0.0
2017-May-01 08:28N 18°04' W 063°05'0 0.0
2017-May-01 07:58N 18°04' W 063°05'0 0.0
2017-May-01 07:28N 18°04' W 063°05'0 0.0
2017-May-01 06:58N 18°04' W 063°05'0 0.0
2017-May-01 05:58N 18°04' W 063°05'0 0.0
2017-May-01 05:10N 18°04' W 063°05'0 0.0
2017-May-01 04:55N 18°04' W 063°05'0 0.0
2017-May-01 04:28N 18°04' W 063°05'0 0.0
2017-May-01 03:46N 18°04' W 063°05'0 0.0
2017-May-01 03:28N 18°04' W 063°05'0 0.0
2017-May-01 02:58N 18°04' W 063°05'0 0.0
2017-May-01 02:28N 18°04' W 063°05'0 0.0
2017-May-01 01:19N 18°04' W 063°05'0 0.0
2017-May-01 00:49N 18°04' W 063°05'0 0.0
2017-May-01 00:16N 18°04' W 063°05'0 0.0
2017-Apr-30 23:52N 18°04' W 063°05'0 0.0
2017-Apr-30 23:22N 18°04' W 063°05'0 0.0
2017-Apr-30 22:52N 18°04' W 063°05'0 0.0
2017-Apr-30 22:07N 18°04' W 063°05'  
2017-Apr-28 16:48N 18°04' W 063°05'0 0.0
2017-Apr-28 16:18N 18°04' W 063°05'0 0.0
2017-Apr-28 16:00N 18°04' W 063°05'0 0.0
2017-Apr-28 15:03N 18°04' W 063°05'0 0.1
2017-Apr-28 15:00N 18°04' W 063°05'0 0.0
2017-Apr-28 13:51N 18°04' W 063°05'0 0.0
2017-Apr-28 13:21N 18°04' W 063°05'0 0.0
2017-Apr-28 12:54N 18°04' W 063°05'0 0.0
2017-Apr-28 12:24N 18°04' W 063°05'0 0.0
2017-Apr-28 11:54N 18°04' W 063°05'0 0.0
2017-Apr-28 11:24N 18°04' W 063°05'0 0.0
2017-Apr-28 10:54N 18°04' W 063°05'0 0.0
2017-Apr-28 10:27N 18°04' W 063°05'0 0.0
2017-Apr-28 09:57N 18°04' W 063°05'0 0.0
2017-Apr-28 09:27N 18°04' W 063°05'0 0.0
2017-Apr-28 08:57N 18°04' W 063°05'0 0.0
2017-Apr-28 08:27N 18°04' W 063°05'0 0.0
2017-Apr-28 07:57N 18°04' W 063°05'0 0.0
2017-Apr-28 07:27N 18°04' W 063°05'0 0.0
2017-Apr-28 06:57N 18°04' W 063°05'0 0.0
2017-Apr-28 06:30N 18°04' W 063°05'0 0.0
2017-Apr-28 06:00N 18°04' W 063°05'0 0.0
2017-Apr-28 05:27N 18°04' W 063°05'0 0.0
2017-Apr-28 04:57N 18°04' W 063°05'0 0.0
2017-Apr-28 04:30N 18°04' W 063°05'0 0.0
2017-Apr-28 03:57N 18°04' W 063°05'0 0.0
2017-Apr-28 03:30N 18°04' W 063°05'0 0.0
2017-Apr-28 02:58N 18°04' W 063°05'0 0.0
2017-Apr-28 02:26N 18°04' W 063°05'0 0.0
2017-Apr-28 01:53N 18°04' W 063°05'0 0.0
2017-Apr-28 01:26N 18°04' W 063°05'0 0.0
2017-Apr-28 00:56N 18°04' W 063°05'0 0.0
2017-Apr-28 00:26N 18°04' W 063°05'0 0.0
2017-Apr-27 23:56N 18°04' W 063°05'0 0.0
2017-Apr-27 23:29N 18°04' W 063°05'0 0.0
2017-Apr-27 22:56N 18°04' W 063°05'0 0.0
2017-Apr-27 22:29N 18°04' W 063°05'0 0.0
2017-Apr-27 21:59N 18°04' W 063°05'0 0.0
2017-Apr-27 21:26N 18°04' W 063°05'0 0.0
2017-Apr-27 20:59N 18°04' W 063°05'0 0.0
2017-Apr-27 20:26N 18°04' W 063°05'0 0.0
2017-Apr-27 19:56N 18°04' W 063°05'0 0.0
2017-Apr-27 19:29N 18°04' W 063°05'0 0.0
2017-Apr-27 18:59N 18°04' W 063°05'0 0.0
2017-Apr-27 18:29N 18°04' W 063°05'0 0.0
2017-Apr-27 17:50N 18°04' W 063°05'0 0.0
2017-Apr-27 17:20N 18°04' W 063°05'0 0.0
2017-Apr-27 16:50N 18°04' W 063°05'0 0.0
2017-Apr-27 16:17N 18°04' W 063°05'0 0.0
2017-Apr-27 15:53N 18°04' W 063°05'0 0.0
2017-Apr-27 15:23N 18°04' W 063°05'0 0.0
2017-Apr-27 14:53N 18°04' W 063°05'0 0.0
2017-Apr-27 13:53N 18°04' W 063°05'0 0.0
2017-Apr-27 13:20N 18°04' W 063°05'0 0.0
2017-Apr-27 12:56N 18°04' W 063°05'0 0.0
2017-Apr-27 12:26N 18°04' W 063°05'0 0.0
2017-Apr-27 11:56N 18°04' W 063°05'0 0.0
2017-Apr-27 11:26N 18°04' W 063°05'0 0.0
2017-Apr-27 10:56N 18°04' W 063°05'0 0.0
2017-Apr-27 10:26N 18°04' W 063°05'0 0.0
2017-Apr-27 09:59N 18°04' W 063°05'0 0.0
2017-Apr-27 09:29N 18°04' W 063°05'0 0.0
2017-Apr-27 08:59N 18°04' W 063°05'0 0.0
2017-Apr-27 08:29N 18°04' W 063°05'0 0.0
2017-Apr-27 07:56N 18°04' W 063°05'0 0.0
2017-Apr-27 07:29N 18°04' W 063°05'0 0.0
2017-Apr-27 06:56N 18°04' W 063°05'0 0.0
2017-Apr-27 06:29N 18°04' W 063°05'0 0.0
2017-Apr-27 05:44N 18°04' W 063°05'0 0.0
2017-Apr-27 05:29N 18°04' W 063°05'0 0.0
2017-Apr-27 04:59N 18°04' W 063°05'0 0.0
2017-Apr-27 04:29N 18°04' W 063°05'0 0.0
2017-Apr-27 03:59N 18°04' W 063°05'0 0.0
2017-Apr-27 03:29N 18°04' W 063°05'0 0.0
2017-Apr-27 02:50N 18°04' W 063°05'0 0.0
2017-Apr-27 02:20N 18°04' W 063°05'0 0.0
2017-Apr-27 01:53N 18°04' W 063°05'0 0.0
2017-Apr-27 01:20N 18°04' W 063°05'0 0.0
2017-Apr-27 00:53N 18°04' W 063°05'0 0.0
2017-Apr-27 00:23N 18°04' W 063°05'0 0.0
2017-Apr-26 23:53N 18°04' W 063°05'0 0.0
2017-Apr-26 23:26N 18°04' W 063°05'0 0.0
2017-Apr-26 22:56N 18°04' W 063°05'0 0.0
2017-Apr-26 22:26N 18°04' W 063°05'0 0.0
2017-Apr-26 21:56N 18°04' W 063°05'0 0.0
2017-Apr-26 21:23N 18°04' W 063°05'0 0.0
2017-Apr-26 20:56N 18°04' W 063°05'0 0.0
2017-Apr-26 20:29N 18°04' W 063°05'0 0.0
2017-Apr-26 19:59N 18°04' W 063°05'0 0.0
2017-Apr-26 19:29N 18°04' W 063°05'0 0.0
2017-Apr-26 18:59N 18°04' W 063°05'0 0.0
2017-Apr-26 18:26N 18°04' W 063°05'0 0.0
2017-Apr-26 17:59N 18°04' W 063°05'0 0.0
2017-Apr-26 17:26N 18°04' W 063°05'0 0.0
2017-Apr-26 16:59N 18°04' W 063°05'0 0.0
2017-Apr-26 16:29N 18°04' W 063°05'0 0.0
2017-Apr-26 15:59N 18°04' W 063°05'0 0.0
2017-Apr-26 15:29N 18°04' W 063°05'0 0.0
2017-Apr-26 14:50N 18°04' W 063°05'0 0.0
2017-Apr-26 14:29N 18°04' W 063°05'0 0.0
2017-Apr-26 13:20N 18°04' W 063°05'0 0.0
2017-Apr-26 12:50N 18°04' W 063°05'0 0.0
2017-Apr-26 12:23N 18°04' W 063°05'0 0.0
2017-Apr-26 11:53N 18°04' W 063°05'0 0.0
2017-Apr-26 11:20N 18°04' W 063°05'0 0.0
2017-Apr-26 10:53N 18°04' W 063°05'0 0.0
2017-Apr-26 10:20N 18°04' W 063°05'0 0.0
2017-Apr-26 09:59N 18°04' W 063°05'0 0.0
2017-Apr-26 09:28N 18°04' W 063°05'0 0.0
2017-Apr-26 08:58N 18°04' W 063°05'0 0.0
2017-Apr-26 08:25N 18°04' W 063°05'0 0.0
2017-Apr-26 07:58N 18°04' W 063°05'0 0.0
2017-Apr-26 07:25N 18°04' W 063°05'0 0.0
2017-Apr-26 06:55N 18°04' W 063°05'0 0.0
2017-Apr-26 06:28N 18°04' W 063°05'0 0.0
2017-Apr-26 05:58N 18°04' W 063°05'0 0.0
2017-Apr-26 05:28N 18°04' W 063°05'0 0.0
2017-Apr-26 04:58N 18°04' W 063°05'0 0.0
2017-Apr-26 04:28N 18°04' W 063°05'0 0.0
2017-Apr-26 03:58N 18°04' W 063°05'0 0.0
2017-Apr-26 03:28N 18°04' W 063°05'0 0.0
2017-Apr-26 03:01N 18°04' W 063°05'0 0.0
2017-Apr-26 02:27N 18°04' W 063°05'0 0.0
2017-Apr-26 01:55N 18°04' W 063°05'0 0.0
2017-Apr-26 01:28N 18°04' W 063°05'0 0.0
2017-Apr-26 00:58N 18°04' W 063°05'0 0.0
2017-Apr-26 00:28N 18°04' W 063°05'0 0.0
2017-Apr-25 23:58N 18°04' W 063°05'0 0.0
2017-Apr-25 23:28N 18°04' W 063°05'0 0.0
2017-Apr-25 22:58N 18°04' W 063°05'0 0.0
2017-Apr-25 22:28N 18°04' W 063°05'0 0.0
2017-Apr-25 21:58N 18°04' W 063°05'0 0.0
2017-Apr-25 21:28N 18°04' W 063°05'0 0.0
2017-Apr-25 20:58N 18°04' W 063°05'0 0.0
2017-Apr-25 20:28N 18°04' W 063°05'0 0.0
2017-Apr-25 19:58N 18°04' W 063°05'0 0.0
2017-Apr-25 19:28N 18°04' W 063°05'0 0.0
2017-Apr-25 18:58N 18°04' W 063°05'0 0.0
2017-Apr-25 18:28N 18°04' W 063°05'0 0.0
2017-Apr-25 17:49N 18°04' W 063°05'0 0.0
2017-Apr-25 17:22N 18°04' W 063°05'0 0.0
2017-Apr-25 16:52N 18°04' W 063°05'0 0.0
2017-Apr-25 16:22N 18°04' W 063°05'0 0.0
2017-Apr-25 15:52N 18°04' W 063°05'0 0.0
2017-Apr-25 15:22N 18°04' W 063°05'0 0.0
2017-Apr-25 14:52N 18°04' W 063°05'0 0.0
2017-Apr-25 14:22N 18°04' W 063°05'0 0.0
2017-Apr-25 13:25N 18°04' W 063°05'0 0.0
2017-Apr-25 12:55N 18°04' W 063°05'0 0.0
2017-Apr-25 12:25N 18°04' W 063°05'0 0.0
2017-Apr-25 11:58N 18°04' W 063°05'0 0.0
2017-Apr-25 11:28N 18°04' W 063°05'0 0.0
2017-Apr-25 10:58N 18°04' W 063°05'0 0.0
2017-Apr-25 10:13N 18°04' W 063°05'0 0.0
2017-Apr-25 09:58N 18°04' W 063°05'0 0.0
2017-Apr-25 09:28N 18°04' W 063°05'0 0.0
2017-Apr-25 08:58N 18°04' W 063°05'0 0.0
2017-Apr-25 08:28N 18°04' W 063°05'0 0.0
2017-Apr-25 07:58N 18°04' W 063°05'0 0.0
2017-Apr-25 07:16N 18°04' W 063°05'0 0.0
2017-Apr-25 06:58N 18°04' W 063°05'0 0.0
2017-Apr-25 06:28N 18°04' W 063°05'0 0.0
2017-Apr-25 05:58N 18°04' W 063°05'0 0.0
2017-Apr-25 05:28N 18°04' W 063°05'0 0.0
2017-Apr-25 04:58N 18°04' W 063°05'0 0.0
2017-Apr-25 04:19N 18°04' W 063°05'0 0.0
2017-Apr-25 03:49N 18°04' W 063°05'0 0.0
2017-Apr-25 03:22N 18°04' W 063°05'0 0.0
2017-Apr-25 02:46N 18°04' W 063°05'0 0.0
2017-Apr-25 02:22N 18°04' W 063°05'0 0.0
2017-Apr-25 01:52N 18°04' W 063°05'0 0.0
2017-Apr-25 01:22N 18°04' W 063°05'0 0.0
2017-Apr-25 00:52N 18°04' W 063°05'0 0.0
2017-Apr-25 00:22N 18°04' W 063°05'0 0.0
2017-Apr-24 23:55N 18°04' W 063°05'0 0.0
2017-Apr-24 23:25N 18°04' W 063°05'0 0.0
2017-Apr-24 22:55N 18°04' W 063°05'0 0.0
2017-Apr-24 22:25N 18°04' W 063°05'0 0.0
2017-Apr-24 21:58N 18°04' W 063°05'0 0.0
2017-Apr-24 21:28N 18°04' W 063°05'0 0.0
2017-Apr-24 20:58N 18°04' W 063°05'0 0.0
2017-Apr-24 20:28N 18°04' W 063°05'0 0.0
2017-Apr-24 19:58N 18°04' W 063°05'0 0.0
2017-Apr-24 19:28N 18°04' W 063°05'0 0.0
2017-Apr-24 18:58N 18°04' W 063°05'0 0.0
2017-Apr-24 18:28N 18°04' W 063°05'0 0.0
2017-Apr-24 17:58N 18°04' W 063°05'0 0.0
2017-Apr-24 17:16N 18°04' W 063°05'0 0.0
2017-Apr-24 16:58N 18°04' W 063°05'0 0.0
2017-Apr-24 16:28N 18°04' W 063°05'0 0.0
2017-Apr-24 15:58N 18°04' W 063°05'0 0.0
2017-Apr-24 15:19N 18°04' W 063°05'0 0.0
2017-Apr-24 14:49N 18°04' W 063°05'0 0.0
2017-Apr-24 14:19N 18°04' W 063°05'0 0.0
2017-Apr-24 13:23N 18°04' W 063°05'0 0.0
2017-Apr-24 12:56N 18°04' W 063°05'0 0.0
2017-Apr-24 12:26N 18°04' W 063°05'0 0.0
2017-Apr-24 11:56N 18°04' W 063°05'0 0.0
2017-Apr-24 11:26N 18°04' W 063°05'0 0.0
2017-Apr-24 10:56N 18°04' W 063°05'0 0.0
2017-Apr-24 10:29N 18°04' W 063°05'0 0.0
2017-Apr-24 09:59N 18°04' W 063°05'0 0.0
2017-Apr-24 09:29N 18°04' W 063°05'0 0.0
2017-Apr-24 08:59N 18°04' W 063°05'0 0.0
2017-Apr-24 08:29N 18°04' W 063°05'0 0.0
2017-Apr-24 07:59N 18°04' W 063°05'0 0.0
2017-Apr-24 07:29N 18°04' W 063°05'0 0.0
2017-Apr-24 06:47N 18°04' W 063°05'0 0.0
2017-Apr-24 06:29N 18°04' W 063°05'0 0.0
2017-Apr-24 05:50N 18°04' W 063°05'0 0.0
2017-Apr-24 05:29N 18°04' W 063°05'0 0.0
2017-Apr-24 04:56N 18°04' W 063°05'0 0.0
2017-Apr-24 04:29N 18°04' W 063°05'0 0.0
2017-Apr-24 03:59N 18°04' W 063°05'0 0.0
2017-Apr-24 03:02N 18°04' W 063°05'0 0.0
2017-Apr-24 02:59N 18°04' W 063°05'0 0.0
2017-Apr-24 02:29N 18°04' W 063°05'0 0.0
2017-Apr-24 01:59N 18°04' W 063°05'0 0.0
2017-Apr-24 01:29N 18°04' W 063°05'0 0.0
2017-Apr-24 00:50N 18°04' W 063°05'0 0.0
2017-Apr-24 00:20N 18°04' W 063°05'0 0.0
2017-Apr-23 23:51N 18°04' W 063°05'0 0.0
2017-Apr-23 23:20N 18°04' W 063°05'0 0.0
2017-Apr-23 22:53N 18°04' W 063°05'0 0.0
2017-Apr-23 22:23N 18°04' W 063°05'0 0.0
2017-Apr-23 21:53N 18°04' W 063°05'0 0.0
2017-Apr-23 21:23N 18°04' W 063°05'0 0.0
2017-Apr-23 20:53N 18°04' W 063°05'0 0.0
2017-Apr-23 20:26N 18°04' W 063°05'0 0.0
2017-Apr-23 19:47N 18°04' W 063°05'0 0.0
2017-Apr-23 19:20N 18°04' W 063°05'  
Track history (hours):
 
Tides and Currents Weather Stations Pressure Air Temp Water Temp Dewpoint Dewpoint Depression Visibility Wind Speed Wind Dir Waves Ship Positions

Maersk Constellation

Owner: MAERSK LINES LIMITED, Norfolk, VA. More information available from US FCC via Universal Licensing System and Coast Guard Vessel Documentation Center.

Last reported at 2017-May-03 19:05 UTC. Time now 2017-Jun-25 12:14 UTC.
Position N 16°01' W 061°47'.
Warning: this ship's position is 52 days out of date.

Type: Cargo ship. MMSI: 367477000.

Date/timePositionNaut miles runAvg speedWind from/ knotsBaromVisibWave heightAir tempDewpointWater temp
2017-May-03 19:05N 16°01' W 061°47'17 7.9
2017-May-03 16:55N 16°17' W 061°54'4 8.6
2017-May-03 16:29N 16°20' W 061°55'4 8.9
2017-May-03 15:59N 16°24' W 061°56'4 8.4
2017-May-03 15:30N 16°28' W 061°58'4 8.0
2017-May-03 15:00N 16°32' W 061°59'9 8.4
2017-May-03 13:58N 16°40' W 062°02'3 7.2
2017-May-03 13:30N 16°43' W 062°03'2 3.5
2017-May-03 13:00N 16°45' W 062°04'4 8.4
2017-May-03 12:30N 16°49' W 062°06'4 7.4
2017-May-03 12:00N 16°52' W 062°07'4 6.2
2017-May-03 11:23N 16°55' W 062°10'2 6.5
2017-May-03 11:00N 16°57' W 062°12'76 7.5
2017-May-03 00:47N 17°56' W 063°02'3 8.8
2017-May-03 00:28N 17°58' W 063°05'4 8.2
2017-May-02 23:57N 18°01' W 063°08'4 7.0
2017-May-02 23:25N 18°04' W 063°09'3 6.4
2017-May-02 22:56N 18°05' W 063°06'1 1.0
2017-May-02 22:19N 18°04' W 063°05'0 0.0
2017-May-02 21:49N 18°04' W 063°05'0 0.0
2017-May-02 21:25N 18°04' W 063°05'0 0.0
2017-May-02 20:55N 18°04' W 063°05'0 0.0
2017-May-02 20:25N 18°04' W 063°05'0 0.0
2017-May-02 19:52N 18°04' W 063°05'0 0.0
2017-May-02 19:26N 18°04' W 063°05'0 0.0
2017-May-02 18:55N 18°04' W 063°05'0 0.0
2017-May-02 18:28N 18°04' W 063°05'0 0.0
2017-May-02 17:58N 18°04' W 063°05'0 0.0
2017-May-02 17:28N 18°04' W 063°05'0 0.0
2017-May-02 16:58N 18°04' W 063°05'0 0.0
2017-May-02 16:28N 18°04' W 063°05'0 0.0
2017-May-02 15:58N 18°04' W 063°05'0 0.0
2017-May-02 15:29N 18°04' W 063°05'0 0.0
2017-May-02 14:58N 18°04' W 063°05'0 0.0
2017-May-02 14:29N 18°04' W 063°05'0 0.0
2017-May-02 13:57N 18°04' W 063°05'0 0.0
2017-May-02 13:30N 18°04' W 063°05'0 0.0
2017-May-02 13:00N 18°04' W 063°05'0 0.0
2017-May-02 12:12N 18°04' W 063°05'0 0.0
2017-May-02 12:00N 18°04' W 063°05'0 0.0
2017-May-02 11:30N 18°04' W 063°05'0 0.0
2017-May-02 10:57N 18°04' W 063°05'0 0.0
2017-May-02 10:30N 18°04' W 063°05'0 0.0
2017-May-02 09:18N 18°04' W 063°05'0 0.0
2017-May-02 09:00N 18°04' W 063°05'0 0.0
2017-May-02 08:21N 18°04' W 063°05'0 0.0
2017-May-02 07:51N 18°04' W 063°05'0 0.0
2017-May-02 07:30N 18°04' W 063°05'0 0.0
2017-May-02 06:51N 18°04' W 063°05'0 0.0
2017-May-02 06:03N 18°04' W 063°05'0 0.0
2017-May-02 05:54N 18°04' W 063°05'0 0.0
2017-May-02 05:18N 18°04' W 063°05'0 0.0
2017-May-02 04:51N 18°04' W 063°05'0 0.0
2017-May-02 04:24N 18°04' W 063°05'0 0.0
2017-May-02 03:51N 18°04' W 063°05'0 0.0
2017-May-02 03:24N 18°04' W 063°05'0 0.0
2017-May-02 02:57N 18°04' W 063°05'0 0.0
2017-May-02 02:29N 18°04' W 063°05'0 0.0
2017-May-02 01:59N 18°04' W 063°05'0 0.0
2017-May-02 01:29N 18°04' W 063°05'0 0.0
2017-May-02 00:59N 18°04' W 063°05'0 0.0
2017-May-02 00:26N 18°04' W 063°05'0 0.0
2017-May-01 23:50N 18°04' W 063°05'0 0.0
2017-May-01 23:26N 18°04' W 063°05'0 0.0
2017-May-01 22:56N 18°04' W 063°05'0 0.0
2017-May-01 22:26N 18°04' W 063°05'0 0.0
2017-May-01 21:59N 18°04' W 063°05'0 0.0
2017-May-01 21:29N 18°04' W 063°05'0 0.0
2017-May-01 20:26N 18°04' W 063°05'0 0.0
2017-May-01 19:29N 18°04' W 063°05'0 0.0
2017-May-01 18:59N 18°04' W 063°05'0 0.0
2017-May-01 18:17N 18°04' W 063°05'0 0.0
2017-May-01 17:59N 18°04' W 063°05'0 0.0
2017-May-01 17:29N 18°04' W 063°05'0 0.0
2017-May-01 16:59N 18°04' W 063°05'0 0.0
2017-May-01 16:29N 18°04' W 063°05'0 0.0
2017-May-01 15:59N 18°04' W 063°05'0 0.0
2017-May-01 15:20N 18°04' W 063°05'0 0.0
2017-May-01 14:50N 18°04' W 063°05'0 0.0
2017-May-01 14:00N 18°04' W 063°05'0 0.0
2017-May-01 13:22N 18°04' W 063°05'0 0.0
2017-May-01 12:52N 18°04' W 063°05'0 0.0
2017-May-01 12:22N 18°04' W 063°05'0 0.0
2017-May-01 11:49N 18°04' W 063°05'0 0.0
2017-May-01 11:22N 18°04' W 063°05'0 0.0
2017-May-01 10:55N 18°04' W 063°05'0 0.0
2017-May-01 10:25N 18°04' W 063°05'0 0.0
2017-May-01 09:55N 18°04' W 063°05'0 0.0
2017-May-01 08:40N 18°04' W 063°05'0 0.0
2017-May-01 08:28N 18°04' W 063°05'0 0.0
2017-May-01 07:58N 18°04' W 063°05'0 0.0
2017-May-01 07:28N 18°04' W 063°05'0 0.0
2017-May-01 06:58N 18°04' W 063°05'0 0.0
2017-May-01 05:58N 18°04' W 063°05'0 0.0
2017-May-01 05:10N 18°04' W 063°05'0 0.0
2017-May-01 04:55N 18°04' W 063°05'0 0.0
2017-May-01 04:28N 18°04' W 063°05'0 0.0
2017-May-01 03:46N 18°04' W 063°05'0 0.0
2017-May-01 03:28N 18°04' W 063°05'0 0.0
2017-May-01 02:58N 18°04' W 063°05'0 0.0
2017-May-01 02:28N 18°04' W 063°05'0 0.0
2017-May-01 01:19N 18°04' W 063°05'0 0.0
2017-May-01 00:49N 18°04' W 063°05'0 0.0
2017-May-01 00:16N 18°04' W 063°05'0 0.0
2017-Apr-30 23:52N 18°04' W 063°05'0 0.0
2017-Apr-30 23:22N 18°04' W 063°05'0 0.0
2017-Apr-30 22:52N 18°04' W 063°05'0 0.0
2017-Apr-30 22:07N 18°04' W 063°05'  
2017-Apr-28 16:48N 18°04' W 063°05'0 0.0
2017-Apr-28 16:18N 18°04' W 063°05'0 0.0
2017-Apr-28 16:00N 18°04' W 063°05'0 0.0
2017-Apr-28 15:03N 18°04' W 063°05'0 0.1
2017-Apr-28 15:00N 18°04' W 063°05'0 0.0
2017-Apr-28 13:51N 18°04' W 063°05'0 0.0
2017-Apr-28 13:21N 18°04' W 063°05'0 0.0
2017-Apr-28 12:54N 18°04' W 063°05'0 0.0
2017-Apr-28 12:24N 18°04' W 063°05'0 0.0
2017-Apr-28 11:54N 18°04' W 063°05'0 0.0
2017-Apr-28 11:24N 18°04' W 063°05'0 0.0
2017-Apr-28 10:54N 18°04' W 063°05'0 0.0
2017-Apr-28 10:27N 18°04' W 063°05'0 0.0
2017-Apr-28 09:57N 18°04' W 063°05'0 0.0
2017-Apr-28 09:27N 18°04' W 063°05'0 0.0
2017-Apr-28 08:57N 18°04' W 063°05'0 0.0
2017-Apr-28 08:27N 18°04' W 063°05'0 0.0
2017-Apr-28 07:57N 18°04' W 063°05'0 0.0
2017-Apr-28 07:27N 18°04' W 063°05'0 0.0
2017-Apr-28 06:57N 18°04' W 063°05'0 0.0
2017-Apr-28 06:30N 18°04' W 063°05'0 0.0
2017-Apr-28 06:00N 18°04' W 063°05'0 0.0
2017-Apr-28 05:27N 18°04' W 063°05'0 0.0
2017-Apr-28 04:57N 18°04' W 063°05'0 0.0
2017-Apr-28 04:30N 18°04' W 063°05'0 0.0
2017-Apr-28 03:57N 18°04' W 063°05'0 0.0
2017-Apr-28 03:30N 18°04' W 063°05'0 0.0
2017-Apr-28 02:58N 18°04' W 063°05'0 0.0
2017-Apr-28 02:26N 18°04' W 063°05'0 0.0
2017-Apr-28 01:53N 18°04' W 063°05'0 0.0
2017-Apr-28 01:26N 18°04' W 063°05'0 0.0
2017-Apr-28 00:56N 18°04' W 063°05'0 0.0
2017-Apr-28 00:26N 18°04' W 063°05'0 0.0
2017-Apr-27 23:56N 18°04' W 063°05'0 0.0
2017-Apr-27 23:29N 18°04' W 063°05'0 0.0
2017-Apr-27 22:56N 18°04' W 063°05'0 0.0
2017-Apr-27 22:29N 18°04' W 063°05'0 0.0
2017-Apr-27 21:59N 18°04' W 063°05'0 0.0
2017-Apr-27 21:26N 18°04' W 063°05'0 0.0
2017-Apr-27 20:59N 18°04' W 063°05'0 0.0
2017-Apr-27 20:26N 18°04' W 063°05'0 0.0
2017-Apr-27 19:56N 18°04' W 063°05'0 0.0
2017-Apr-27 19:29N 18°04' W 063°05'0 0.0
2017-Apr-27 18:59N 18°04' W 063°05'0 0.0
2017-Apr-27 18:29N 18°04' W 063°05'0 0.0
2017-Apr-27 17:50N 18°04' W 063°05'0 0.0
2017-Apr-27 17:20N 18°04' W 063°05'0 0.0
2017-Apr-27 16:50N 18°04' W 063°05'0 0.0
2017-Apr-27 16:17N 18°04' W 063°05'0 0.0
2017-Apr-27 15:53N 18°04' W 063°05'0 0.0
2017-Apr-27 15:23N 18°04' W 063°05'0 0.0
2017-Apr-27 14:53N 18°04' W 063°05'0 0.0
2017-Apr-27 13:53N 18°04' W 063°05'0 0.0
2017-Apr-27 13:20N 18°04' W 063°05'0 0.0
2017-Apr-27 12:56N 18°04' W 063°05'0 0.0
2017-Apr-27 12:26N 18°04' W 063°05'0 0.0
2017-Apr-27 11:56N 18°04' W 063°05'0 0.0
2017-Apr-27 11:26N 18°04' W 063°05'0 0.0
2017-Apr-27 10:56N 18°04' W 063°05'0 0.0
2017-Apr-27 10:26N 18°04' W 063°05'0 0.0
2017-Apr-27 09:59N 18°04' W 063°05'0 0.0
2017-Apr-27 09:29N 18°04' W 063°05'0 0.0
2017-Apr-27 08:59N 18°04' W 063°05'0 0.0
2017-Apr-27 08:29N 18°04' W 063°05'0 0.0
2017-Apr-27 07:56N 18°04' W 063°05'0 0.0
2017-Apr-27 07:29N 18°04' W 063°05'0 0.0
2017-Apr-27 06:56N 18°04' W 063°05'0 0.0
2017-Apr-27 06:29N 18°04' W 063°05'0 0.0
2017-Apr-27 05:44N 18°04' W 063°05'0 0.0
2017-Apr-27 05:29N 18°04' W 063°05'0 0.0
2017-Apr-27 04:59N 18°04' W 063°05'0 0.0
2017-Apr-27 04:29N 18°04' W 063°05'0 0.0
2017-Apr-27 03:59N 18°04' W 063°05'0 0.0
2017-Apr-27 03:29N 18°04' W 063°05'0 0.0
2017-Apr-27 02:50N 18°04' W 063°05'0 0.0
2017-Apr-27 02:20N 18°04' W 063°05'0 0.0
2017-Apr-27 01:53N 18°04' W 063°05'0 0.0
2017-Apr-27 01:20N 18°04' W 063°05'0 0.0
2017-Apr-27 00:53N 18°04' W 063°05'0 0.0
2017-Apr-27 00:23N 18°04' W 063°05'0 0.0
2017-Apr-26 23:53N 18°04' W 063°05'0 0.0
2017-Apr-26 23:26N 18°04' W 063°05'0 0.0
2017-Apr-26 22:56N 18°04' W 063°05'0 0.0
2017-Apr-26 22:26N 18°04' W 063°05'0 0.0
2017-Apr-26 21:56N 18°04' W 063°05'0 0.0
2017-Apr-26 21:23N 18°04' W 063°05'0 0.0
2017-Apr-26 20:56N 18°04' W 063°05'0 0.0
2017-Apr-26 20:29N 18°04' W 063°05'0 0.0
2017-Apr-26 19:59N 18°04' W 063°05'0 0.0
2017-Apr-26 19:29N 18°04' W 063°05'0 0.0
2017-Apr-26 18:59N 18°04' W 063°05'0 0.0
2017-Apr-26 18:26N 18°04' W 063°05'0 0.0
2017-Apr-26 17:59N 18°04' W 063°05'0 0.0
2017-Apr-26 17:26N 18°04' W 063°05'0 0.0
2017-Apr-26 16:59N 18°04' W 063°05'0 0.0
2017-Apr-26 16:29N 18°04' W 063°05'0 0.0
2017-Apr-26 15:59N 18°04' W 063°05'0 0.0
2017-Apr-26 15:29N 18°04' W 063°05'0 0.0
2017-Apr-26 14:50N 18°04' W 063°05'0 0.0
2017-Apr-26 14:29N 18°04' W 063°05'0 0.0
2017-Apr-26 13:20N 18°04' W 063°05'0 0.0
2017-Apr-26 12:50N 18°04' W 063°05'0 0.0
2017-Apr-26 12:23N 18°04' W 063°05'0 0.0
2017-Apr-26 11:53N 18°04' W 063°05'0 0.0
2017-Apr-26 11:20N 18°04' W 063°05'0 0.0
2017-Apr-26 10:53N 18°04' W 063°05'0 0.0
2017-Apr-26 10:20N 18°04' W 063°05'0 0.0
2017-Apr-26 09:59N 18°04' W 063°05'0 0.0
2017-Apr-26 09:28N 18°04' W 063°05'0 0.0
2017-Apr-26 08:58N 18°04' W 063°05'0 0.0
2017-Apr-26 08:25N 18°04' W 063°05'0 0.0
2017-Apr-26 07:58N 18°04' W 063°05'0 0.0
2017-Apr-26 07:25N 18°04' W 063°05'0 0.0
2017-Apr-26 06:55N 18°04' W 063°05'0 0.0
2017-Apr-26 06:28N 18°04' W 063°05'0 0.0
2017-Apr-26 05:58N 18°04' W 063°05'0 0.0
2017-Apr-26 05:28N 18°04' W 063°05'0 0.0
2017-Apr-26 04:58N 18°04' W 063°05'0 0.0
2017-Apr-26 04:28N 18°04' W 063°05'0 0.0
2017-Apr-26 03:58N 18°04' W 063°05'0 0.0
2017-Apr-26 03:28N 18°04' W 063°05'0 0.0
2017-Apr-26 03:01N 18°04' W 063°05'0 0.0
2017-Apr-26 02:27N 18°04' W 063°05'0 0.0
2017-Apr-26 01:55N 18°04' W 063°05'0 0.0
2017-Apr-26 01:28N 18°04' W 063°05'0 0.0
2017-Apr-26 00:58N 18°04' W 063°05'0 0.0
2017-Apr-26 00:28N 18°04' W 063°05'0 0.0
2017-Apr-25 23:58N 18°04' W 063°05'0 0.0
2017-Apr-25 23:28N 18°04' W 063°05'0 0.0
2017-Apr-25 22:58N 18°04' W 063°05'0 0.0
2017-Apr-25 22:28N 18°04' W 063°05'0 0.0
2017-Apr-25 21:58N 18°04' W 063°05'0 0.0
2017-Apr-25 21:28N 18°04' W 063°05'0 0.0
2017-Apr-25 20:58N 18°04' W 063°05'0 0.0
2017-Apr-25 20:28N 18°04' W 063°05'0 0.0
2017-Apr-25 19:58N 18°04' W 063°05'0 0.0
2017-Apr-25 19:28N 18°04' W 063°05'0 0.0
2017-Apr-25 18:58N 18°04' W 063°05'0 0.0
2017-Apr-25 18:28N 18°04' W 063°05'0 0.0
2017-Apr-25 17:49N 18°04' W 063°05'0 0.0
2017-Apr-25 17:22N 18°04' W 063°05'0 0.0
2017-Apr-25 16:52N 18°04' W 063°05'0 0.0
2017-Apr-25 16:22N 18°04' W 063°05'0 0.0
2017-Apr-25 15:52N 18°04' W 063°05'0 0.0
2017-Apr-25 15:22N 18°04' W 063°05'0 0.0
2017-Apr-25 14:52N 18°04' W 063°05'0 0.0
2017-Apr-25 14:22N 18°04' W 063°05'0 0.0
2017-Apr-25 13:25N 18°04' W 063°05'0 0.0
2017-Apr-25 12:55N 18°04' W 063°05'0 0.0
2017-Apr-25 12:25N 18°04' W 063°05'0 0.0
2017-Apr-25 11:58N 18°04' W 063°05'0 0.0
2017-Apr-25 11:28N 18°04' W 063°05'0 0.0
2017-Apr-25 10:58N 18°04' W 063°05'0 0.0
2017-Apr-25 10:13N 18°04' W 063°05'0 0.0
2017-Apr-25 09:58N 18°04' W 063°05'0 0.0
2017-Apr-25 09:28N 18°04' W 063°05'0 0.0
2017-Apr-25 08:58N 18°04' W 063°05'0 0.0
2017-Apr-25 08:28N 18°04' W 063°05'0 0.0
2017-Apr-25 07:58N 18°04' W 063°05'0 0.0
2017-Apr-25 07:16N 18°04' W 063°05'0 0.0
2017-Apr-25 06:58N 18°04' W 063°05'0 0.0
2017-Apr-25 06:28N 18°04' W 063°05'0 0.0
2017-Apr-25 05:58N 18°04' W 063°05'0 0.0
2017-Apr-25 05:28N 18°04' W 063°05'0 0.0
2017-Apr-25 04:58N 18°04' W 063°05'0 0.0
2017-Apr-25 04:19N 18°04' W 063°05'0 0.0
2017-Apr-25 03:49N 18°04' W 063°05'0 0.0
2017-Apr-25 03:22N 18°04' W 063°05'0 0.0
2017-Apr-25 02:46N 18°04' W 063°05'0 0.0
2017-Apr-25 02:22N 18°04' W 063°05'0 0.0
2017-Apr-25 01:52N 18°04' W 063°05'0 0.0
2017-Apr-25 01:22N 18°04' W 063°05'0 0.0
2017-Apr-25 00:52N 18°04' W 063°05'0 0.0
2017-Apr-25 00:22N 18°04' W 063°05'0 0.0
2017-Apr-24 23:55N 18°04' W 063°05'0 0.0
2017-Apr-24 23:25N 18°04' W 063°05'0 0.0
2017-Apr-24 22:55N 18°04' W 063°05'0 0.0
2017-Apr-24 22:25N 18°04' W 063°05'0 0.0
2017-Apr-24 21:58N 18°04' W 063°05'0 0.0
2017-Apr-24 21:28N 18°04' W 063°05'0 0.0
2017-Apr-24 20:58N 18°04' W 063°05'0 0.0
2017-Apr-24 20:28N 18°04' W 063°05'0 0.0
2017-Apr-24 19:58N 18°04' W 063°05'0 0.0
2017-Apr-24 19:28N 18°04' W 063°05'0 0.0
2017-Apr-24 18:58N 18°04' W 063°05'0 0.0
2017-Apr-24 18:28N 18°04' W 063°05'0 0.0
2017-Apr-24 17:58N 18°04' W 063°05'0 0.0
2017-Apr-24 17:16N 18°04' W 063°05'0 0.0
2017-Apr-24 16:58N 18°04' W 063°05'0 0.0
2017-Apr-24 16:28N 18°04' W 063°05'0 0.0
2017-Apr-24 15:58N 18°04' W 063°05'0 0.0
2017-Apr-24 15:19N 18°04' W 063°05'0 0.0
2017-Apr-24 14:49N 18°04' W 063°05'0 0.0
2017-Apr-24 14:19N 18°04' W 063°05'0 0.0
2017-Apr-24 13:23N 18°04' W 063°05'0 0.0
2017-Apr-24 12:56N 18°04' W 063°05'0 0.0
2017-Apr-24 12:26N 18°04' W 063°05'0 0.0
2017-Apr-24 11:56N 18°04' W 063°05'0 0.0
2017-Apr-24 11:26N 18°04' W 063°05'0 0.0
2017-Apr-24 10:56N 18°04' W 063°05'0 0.0
2017-Apr-24 10:29N 18°04' W 063°05'0 0.0
2017-Apr-24 09:59N 18°04' W 063°05'0 0.0
2017-Apr-24 09:29N 18°04' W 063°05'0 0.0
2017-Apr-24 08:59N 18°04' W 063°05'0 0.0
2017-Apr-24 08:29N 18°04' W 063°05'0 0.0
2017-Apr-24 07:59N 18°04' W 063°05'0 0.0
2017-Apr-24 07:29N 18°04' W 063°05'0 0.0
2017-Apr-24 06:47N 18°04' W 063°05'0 0.0
2017-Apr-24 06:29N 18°04' W 063°05'0 0.0
2017-Apr-24 05:50N 18°04' W 063°05'0 0.0
2017-Apr-24 05:29N 18°04' W 063°05'0 0.0
2017-Apr-24 04:56N 18°04' W 063°05'0 0.0
2017-Apr-24 04:29N 18°04' W 063°05'0 0.0
2017-Apr-24 03:59N 18°04' W 063°05'0 0.0
2017-Apr-24 03:02N 18°04' W 063°05'0 0.0
2017-Apr-24 02:59N 18°04' W 063°05'0 0.0
2017-Apr-24 02:29N 18°04' W 063°05'0 0.0
2017-Apr-24 01:59N 18°04' W 063°05'0 0.0
2017-Apr-24 01:29N 18°04' W 063°05'0 0.0
2017-Apr-24 00:50N 18°04' W 063°05'0 0.0
2017-Apr-24 00:20N 18°04' W 063°05'0 0.0
2017-Apr-23 23:51N 18°04' W 063°05'0 0.0
2017-Apr-23 23:20N 18°04' W 063°05'0 0.0
2017-Apr-23 22:53N 18°04' W 063°05'0 0.0
2017-Apr-23 22:23N 18°04' W 063°05'0 0.0
2017-Apr-23 21:53N 18°04' W 063°05'0 0.0
2017-Apr-23 21:23N 18°04' W 063°05'0 0.0
2017-Apr-23 20:53N 18°04' W 063°05'0 0.0
2017-Apr-23 20:26N 18°04' W 063°05'0 0.0
2017-Apr-23 19:47N 18°04' W 063°05'0 0.0
2017-Apr-23 19:20N 18°04' W 063°05'  

Dump ship's entire track history